createdAt,value
2018-04-06T00:00:21.231Z,0.66
2018-04-06T00:01:27.317Z,0.74
2018-04-06T00:02:33.379Z,0.71
2018-04-06T00:03:39.252Z,0.58
2018-04-06T00:04:45.029Z,0.53
2018-04-06T00:05:51.331Z,0.38
2018-04-06T00:06:56.912Z,0.42
2018-04-06T00:08:02.639Z,0.28
2018-04-06T00:09:08.364Z,0.30
2018-04-06T00:10:14.803Z,0.28
2018-04-06T00:11:20.657Z,0.23
2018-04-06T00:12:28.644Z,0.17
2018-04-06T00:13:34.550Z,0.18
2018-04-06T00:14:40.531Z,0.14
2018-04-06T00:15:46.168Z,0.17
2018-04-06T00:16:53.326Z,0.21
2018-04-06T00:17:58.918Z,0.25
2018-04-06T00:19:04.931Z,0.28
2018-04-06T00:20:10.696Z,0.38
2018-04-06T00:21:16.449Z,0.33
2018-04-06T00:22:21.826Z,0.38
2018-04-06T00:23:28.266Z,0.40
2018-04-06T00:24:33.734Z,0.37
2018-04-06T00:25:39.720Z,0.41
2018-04-06T00:26:45.156Z,0.46
2018-04-06T00:27:51.005Z,0.55
2018-04-06T00:28:56.840Z,0.56
2018-04-06T00:30:02.519Z,0.44
2018-04-06T00:31:08.144Z,0.49
2018-04-06T00:32:15.227Z,0.47
2018-04-06T00:33:22.070Z,0.42
2018-04-06T00:34:28.567Z,0.41
2018-04-06T00:35:33.997Z,0.30
2018-04-06T00:36:40.841Z,0.31
2018-04-06T00:37:46.885Z,0.25
2018-04-06T00:38:52.914Z,0.24
2018-04-06T00:39:58.826Z,0.20
2018-04-06T00:41:04.381Z,0.26
2018-04-06T00:42:10.246Z,0.21
2018-04-06T00:43:15.970Z,0.19
2018-04-06T00:44:21.798Z,0.13
2018-04-06T00:45:28.173Z,0.10
2018-04-06T00:46:34.156Z,0.12
2018-04-06T00:47:39.893Z,0.20
2018-04-06T00:48:46.119Z,0.20
2018-04-06T00:49:52.678Z,0.27
2018-04-06T00:50:58.434Z,0.27
2018-04-06T00:52:04.635Z,0.23
2018-04-06T00:53:13.852Z,0.13
2018-04-06T00:54:19.295Z,0.00
2018-04-06T00:55:25.254Z,-0.02
2018-04-06T00:56:30.707Z,0.08
2018-04-06T00:57:36.672Z,0.11
2018-04-06T00:58:42.927Z,0.12
2018-04-06T00:59:48.432Z,0.19
2018-04-06T01:00:54.140Z,0.24
2018-04-06T01:01:59.995Z,0.35
2018-04-06T01:03:05.601Z,0.42
2018-04-06T01:04:12.000Z,0.21
2018-04-06T01:05:19.297Z,0.07
2018-04-06T01:06:25.115Z,0.05
2018-04-06T01:07:30.525Z,0.10
2018-04-06T01:08:35.925Z,0.16
2018-04-06T01:09:41.735Z,0.30
2018-04-06T01:10:47.533Z,0.32
2018-04-06T01:11:53.571Z,0.29
2018-04-06T01:12:59.350Z,0.28
2018-04-06T01:14:05.103Z,0.38
2018-04-06T01:15:10.463Z,0.29
2018-04-06T01:16:15.984Z,0.26
2018-04-06T01:17:21.475Z,0.21
2018-04-06T01:18:27.162Z,0.21
2018-04-06T01:19:32.640Z,0.28
2018-04-06T01:20:38.183Z,0.15
2018-04-06T01:21:43.740Z,0.08
2018-04-06T01:22:50.143Z,0.03
2018-04-06T01:23:55.531Z,0.03
2018-04-06T01:25:01.042Z,0.06
2018-04-06T01:26:06.552Z,0.12
2018-04-06T01:27:11.860Z,0.19
2018-04-06T01:28:17.378Z,0.22
2018-04-06T01:29:22.507Z,0.15
2018-04-06T01:30:27.861Z,0.14
2018-04-06T01:31:33.329Z,0.10
2018-04-06T01:32:39.158Z,0.10
2018-04-06T01:33:44.300Z,0.14
2018-04-06T01:34:49.341Z,0.12
2018-04-06T01:35:54.414Z,0.15
2018-04-06T01:36:59.416Z,0.09
2018-04-06T01:38:05.079Z,0.08
2018-04-06T01:39:09.961Z,0.14
2018-04-06T01:40:14.818Z,0.06
2018-04-06T01:41:20.123Z,0.09
2018-04-06T01:42:25.384Z,0.10
2018-04-06T01:43:30.494Z,0.12
2018-04-06T01:44:35.930Z,0.12
2018-04-06T01:45:41.420Z,0.18
2018-04-06T01:46:46.408Z,0.31
2018-04-06T01:47:52.416Z,0.33
2018-04-06T01:48:58.348Z,0.38
2018-04-06T01:50:03.423Z,0.43
2018-04-06T01:51:09.018Z,0.34
2018-04-06T01:52:14.281Z,0.41
2018-04-06T01:53:19.439Z,0.33
2018-04-06T01:54:24.467Z,0.12
2018-04-06T01:55:29.692Z,0.08
2018-04-06T01:56:35.528Z,0.06
2018-04-06T01:57:40.724Z,-0.07
2018-04-06T01:58:46.434Z,-0.09
2018-04-06T01:59:51.903Z,-0.11
2018-04-06T02:00:57.149Z,-0.08
2018-04-06T02:02:02.304Z,-0.12
2018-04-06T02:03:08.306Z,-0.13
2018-04-06T02:04:13.670Z,-0.04
2018-04-06T02:05:18.934Z,-0.05
2018-04-06T02:06:24.186Z,-0.05
2018-04-06T02:07:29.152Z,0.06
2018-04-06T02:08:34.174Z,0.12
2018-04-06T02:09:39.616Z,0.18
2018-04-06T02:10:44.586Z,0.25
2018-04-06T02:11:49.682Z,0.22
2018-04-06T02:12:54.772Z,0.29
2018-04-06T02:14:00.055Z,0.21
2018-04-06T02:15:05.163Z,0.25
2018-04-06T02:16:10.496Z,0.24
2018-04-06T02:17:15.401Z,0.17
2018-04-06T02:18:20.361Z,0.15
2018-04-06T02:19:25.395Z,0.00
2018-04-06T02:20:30.127Z,-0.01
2018-04-06T02:21:35.221Z,0.07
2018-04-06T02:22:40.574Z,0.17
2018-04-06T02:23:45.557Z,0.26
2018-04-06T02:24:50.544Z,0.30
2018-04-06T02:25:56.105Z,0.22
2018-04-06T02:27:01.939Z,0.20
2018-04-06T02:28:06.961Z,0.33
2018-04-06T02:29:13.202Z,0.18
2018-04-06T02:30:18.208Z,-0.01
2018-04-06T02:31:23.250Z,0.03
2018-04-06T02:32:28.053Z,0.00
2018-04-06T02:33:32.947Z,0.02
2018-04-06T02:34:37.678Z,0.03
2018-04-06T02:35:43.830Z,-0.03
2018-04-06T02:36:48.653Z,0.08
2018-04-06T02:37:53.456Z,0.06
2018-04-06T02:38:58.299Z,0.14
2018-04-06T02:40:03.082Z,0.15
2018-04-06T02:41:07.843Z,0.20
2018-04-06T02:42:13.170Z,0.14
2018-04-06T02:43:17.994Z,0.05
2018-04-06T02:44:22.815Z,-0.12
2018-04-06T02:45:27.692Z,-0.10
2018-04-06T02:46:32.478Z,-0.14
2018-04-06T02:47:37.255Z,-0.12
2018-04-06T02:48:43.077Z,-0.21
2018-04-06T02:49:47.899Z,-0.33
2018-04-06T02:50:52.925Z,-0.38
2018-04-06T02:51:57.579Z,-0.43
2018-04-06T02:53:02.419Z,-0.48
2018-04-06T02:54:07.176Z,-0.45
2018-04-06T02:55:12.274Z,-0.50
2018-04-06T02:56:17.026Z,-0.46
2018-04-06T02:57:21.797Z,-0.38
2018-04-06T02:58:26.610Z,-0.31
2018-04-06T02:59:31.371Z,-0.27
2018-04-06T03:00:36.333Z,-0.20
2018-04-06T03:01:41.598Z,-0.32
2018-04-06T03:02:46.499Z,-0.40
2018-04-06T03:03:51.714Z,-0.50
2018-04-06T03:04:56.543Z,-0.50
2018-04-06T03:06:01.274Z,-0.40
2018-04-06T03:07:06.225Z,-0.26
2018-04-06T03:08:11.611Z,-0.24
2018-04-06T03:09:16.467Z,-0.17
2018-04-06T03:10:21.490Z,-0.14
2018-04-06T03:11:26.366Z,-0.20
2018-04-06T03:12:31.821Z,-0.19
2018-04-06T03:13:36.774Z,-0.19
2018-04-06T03:14:42.000Z,-0.15
2018-04-06T03:15:46.998Z,-0.16
2018-04-06T03:16:51.785Z,-0.12
2018-04-06T03:17:56.621Z,-0.06
2018-04-06T03:19:01.463Z,-0.01
2018-04-06T03:20:06.472Z,-0.01
2018-04-06T03:21:12.235Z,0.06
2018-04-06T03:22:18.175Z,-0.09
2018-04-06T03:23:23.074Z,-0.19
2018-04-06T03:24:27.942Z,-0.10
2018-04-06T03:25:32.874Z,-0.07
2018-04-06T03:26:37.696Z,-0.05
2018-04-06T03:27:43.116Z,-0.05
2018-04-06T03:28:48.271Z,-0.06
2018-04-06T03:29:53.301Z,-0.12
2018-04-06T03:30:58.270Z,-0.12
2018-04-06T03:32:03.161Z,-0.13
2018-04-06T03:33:08.236Z,-0.20
2018-04-06T03:34:13.559Z,-0.22
2018-04-06T03:35:18.421Z,-0.38
2018-04-06T03:36:23.260Z,-0.46
2018-04-06T03:37:27.913Z,-0.46
2018-04-06T03:38:32.540Z,-0.40
2018-04-06T03:39:37.484Z,-0.28
2018-04-06T03:40:42.566Z,-0.21
2018-04-06T03:41:47.597Z,-0.28
2018-04-06T03:42:52.469Z,-0.32
2018-04-06T03:43:57.295Z,-0.37
2018-04-06T03:45:02.397Z,-0.34
2018-04-06T03:46:07.176Z,-0.31
2018-04-06T03:47:12.431Z,-0.28
2018-04-06T03:48:18.481Z,-0.32
2018-04-06T03:49:23.233Z,-0.22
2018-04-06T03:50:28.043Z,-0.21
2018-04-06T03:51:32.814Z,-0.12
2018-04-06T03:52:37.654Z,-0.03
2018-04-06T03:53:43.005Z,-0.02
2018-04-06T03:54:47.912Z,-0.07
2018-04-06T03:55:52.721Z,-0.14
2018-04-06T03:56:57.510Z,-0.09
2018-04-06T03:58:02.256Z,-0.12
2018-04-06T03:59:07.079Z,-0.13
2018-04-06T04:00:12.387Z,-0.23
2018-04-06T04:01:17.146Z,-0.14
2018-04-06T04:02:22.816Z,-0.16
2018-04-06T04:03:27.537Z,-0.17
2018-04-06T04:04:32.368Z,-0.17
2018-04-06T04:05:37.576Z,-0.29
2018-04-06T04:06:42.892Z,-0.34
2018-04-06T04:07:47.899Z,-0.38
2018-04-06T04:08:53.476Z,-0.34
2018-04-06T04:09:58.391Z,-0.37
2018-04-06T04:11:03.133Z,-0.33
2018-04-06T04:12:07.925Z,-0.34
2018-04-06T04:13:13.253Z,-0.25
2018-04-06T04:14:18.534Z,-0.21
2018-04-06T04:15:24.353Z,-0.33
2018-04-06T04:16:29.227Z,-0.34
2018-04-06T04:17:34.339Z,-0.28
2018-04-06T04:18:39.943Z,-0.28
2018-04-06T04:19:44.713Z,-0.38
2018-04-06T04:20:49.653Z,-0.39
2018-04-06T04:21:54.391Z,-0.29
2018-04-06T04:22:59.297Z,-0.35
2018-04-06T04:24:03.958Z,-0.40
2018-04-06T04:25:14.215Z,-0.42
2018-04-06T04:26:19.054Z,-0.41
2018-04-06T04:27:23.990Z,-0.39
2018-04-06T04:28:28.922Z,-0.35
2018-04-06T04:29:33.750Z,-0.36
2018-04-06T04:30:38.680Z,-0.42
2018-04-06T04:31:43.992Z,-0.44
2018-04-06T04:32:48.848Z,-0.39
2018-04-06T04:33:53.672Z,-0.35
2018-04-06T04:34:58.573Z,-0.44
2018-04-06T04:36:03.300Z,-0.45
2018-04-06T04:37:08.130Z,-0.47
2018-04-06T04:38:12.880Z,-0.41
2018-04-06T04:39:17.764Z,-0.37
2018-04-06T04:40:22.695Z,-0.33
2018-04-06T04:41:27.469Z,-0.36
2018-04-06T04:42:32.181Z,-0.28
2018-04-06T04:43:37.151Z,-0.21
2018-04-06T04:44:41.894Z,-0.29
2018-04-06T04:45:46.724Z,-0.28
2018-04-06T04:46:51.551Z,-0.34
2018-04-06T04:47:56.504Z,-0.46
2018-04-06T04:49:01.481Z,-0.47
2018-04-06T04:50:06.727Z,-0.50
2018-04-06T04:51:11.519Z,-0.39
2018-04-06T04:52:16.300Z,-0.42
2018-04-06T04:53:21.149Z,-0.44
2018-04-06T04:54:26.080Z,-0.38
2018-04-06T04:55:30.656Z,-0.32
2018-04-06T04:56:35.917Z,-0.38
2018-04-06T04:57:40.590Z,-0.48
2018-04-06T04:58:45.556Z,-0.39
2018-04-06T04:59:50.789Z,-0.41
2018-04-06T05:00:55.822Z,-0.35
2018-04-06T05:02:00.772Z,-0.37
2018-04-06T05:03:06.381Z,-0.41
2018-04-06T05:04:12.174Z,-0.37
2018-04-06T05:05:17.199Z,-0.34
2018-04-06T05:06:22.349Z,-0.38
2018-04-06T05:07:27.257Z,-0.36
2018-04-06T05:08:33.362Z,-0.36
2018-04-06T05:09:39.819Z,-0.27
2018-04-06T05:10:44.723Z,-0.27
2018-04-06T05:11:49.926Z,-0.29
2018-04-06T05:12:54.782Z,-0.20
2018-04-06T05:14:00.321Z,-0.21
2018-04-06T05:15:06.533Z,-0.16
2018-04-06T05:16:12.872Z,-0.16
2018-04-06T05:17:18.908Z,-0.13
2018-04-06T05:18:23.965Z,-0.13
2018-04-06T05:19:29.212Z,-0.04
2018-04-06T05:20:34.316Z,-0.04
2018-04-06T05:21:39.509Z,-0.13
2018-04-06T05:22:45.085Z,-0.05
2018-04-06T05:23:50.142Z,0.00
2018-04-06T05:24:55.770Z,0.05
2018-04-06T05:26:00.902Z,0.10
2018-04-06T05:27:05.991Z,0.04
2018-04-06T05:28:11.152Z,0.13
2018-04-06T05:29:16.851Z,0.21
2018-04-06T05:30:22.032Z,0.34
2018-04-06T05:31:28.192Z,0.42
2018-04-06T05:32:33.389Z,0.53
2018-04-06T05:33:38.822Z,0.42
2018-04-06T05:34:44.238Z,0.42
2018-04-06T05:35:50.745Z,0.47
2018-04-06T05:36:56.357Z,0.46
2018-04-06T05:38:01.767Z,0.56
2018-04-06T05:39:07.265Z,0.64
2018-04-06T05:40:13.719Z,0.71
2018-04-06T05:41:19.186Z,0.72
2018-04-06T05:42:24.730Z,0.59
2018-04-06T05:43:30.224Z,0.71
2018-04-06T05:44:35.842Z,0.87
2018-04-06T05:45:42.902Z,0.91
2018-04-06T05:46:48.610Z,0.95
2018-04-06T05:47:53.870Z,1.00
2018-04-06T05:48:59.426Z,0.99
2018-04-06T05:50:05.066Z,0.94
2018-04-06T05:51:10.387Z,0.94
2018-04-06T05:52:15.652Z,0.95
2018-04-06T05:53:20.765Z,0.84
2018-04-06T05:54:26.139Z,0.94
2018-04-06T05:55:32.011Z,0.94
2018-04-06T05:56:37.465Z,1.02
2018-04-06T05:57:42.814Z,1.03
2018-04-06T05:58:48.318Z,1.19
2018-04-06T05:59:54.326Z,1.26
2018-04-06T06:01:00.297Z,1.29
2018-04-06T06:02:07.092Z,1.27
2018-04-06T06:03:12.682Z,1.40
2018-04-06T06:04:18.910Z,1.57
2018-04-06T06:05:24.437Z,1.63
2018-04-06T06:06:30.487Z,1.58
2018-04-06T06:07:36.265Z,1.50
2018-04-06T06:08:42.288Z,1.54
2018-04-06T06:09:47.803Z,1.61
2018-04-06T06:10:53.525Z,1.85
2018-04-06T06:11:59.355Z,1.94
2018-04-06T06:13:04.810Z,2.25
2018-04-06T06:14:10.379Z,2.87
2018-04-06T06:15:16.423Z,4.63
2018-04-06T06:16:22.008Z,6.87
2018-04-06T06:17:27.683Z,8.72
2018-04-06T06:18:32.905Z,9.55
2018-04-06T06:19:38.547Z,10.24
2018-04-06T06:20:44.192Z,10.74
2018-04-06T06:21:50.183Z,10.52
2018-04-06T06:22:55.921Z,10.52
2018-04-06T06:24:01.673Z,10.72
2018-04-06T06:25:07.363Z,10.62
2018-04-06T06:26:13.022Z,10.64
2018-04-06T06:27:18.830Z,10.59
2018-04-06T06:28:24.845Z,10.35
2018-04-06T06:29:30.714Z,10.10
2018-04-06T06:30:36.563Z,10.12
2018-04-06T06:31:42.167Z,9.70
2018-04-06T06:32:48.044Z,9.47
2018-04-06T06:33:54.050Z,8.36
2018-04-06T06:35:01.186Z,7.38
2018-04-06T06:36:07.692Z,6.81
2018-04-06T06:37:14.524Z,6.03
2018-04-06T06:38:20.776Z,5.45
2018-04-06T06:39:27.828Z,5.60
2018-04-06T06:40:33.793Z,5.69
2018-04-06T06:41:39.455Z,5.54
2018-04-06T06:42:46.660Z,5.63
2018-04-06T06:43:52.370Z,5.33
2018-04-06T06:44:58.072Z,5.15
2018-04-06T06:46:03.623Z,5.36
2018-04-06T06:47:09.636Z,5.54
2018-04-06T06:48:15.093Z,5.33
2018-04-06T06:49:23.549Z,5.27
2018-04-06T06:50:29.406Z,5.46
2018-04-06T06:51:35.417Z,5.92
2018-04-06T06:52:41.005Z,5.96
2018-04-06T06:53:47.312Z,5.99
2018-04-06T06:54:54.101Z,6.26
2018-04-06T06:56:01.532Z,5.97
2018-04-06T06:57:08.119Z,5.67
2018-04-06T06:58:15.994Z,5.94
2018-04-06T06:59:22.091Z,5.77
2018-04-06T07:00:27.961Z,5.83
2018-04-06T07:01:33.819Z,5.82
2018-04-06T07:02:39.702Z,5.46
2018-04-06T07:03:45.489Z,5.64
2018-04-06T07:04:51.054Z,6.09
2018-04-06T07:05:57.198Z,6.13
2018-04-06T07:07:03.083Z,6.58
2018-04-06T07:08:08.752Z,6.30
2018-04-06T07:09:14.302Z,6.16
2018-04-06T07:10:19.830Z,5.96
2018-04-06T07:11:25.547Z,5.92
2018-04-06T07:12:31.553Z,6.17
2018-04-06T07:13:37.232Z,6.45
2018-04-06T07:14:43.083Z,6.83
2018-04-06T07:15:48.645Z,7.04
2018-04-06T07:16:54.203Z,6.86
2018-04-06T07:17:59.560Z,6.90
2018-04-06T07:19:05.650Z,6.73
2018-04-06T07:20:11.246Z,7.44
2018-04-06T07:21:16.861Z,7.47
2018-04-06T07:22:22.298Z,7.45
2018-04-06T07:23:27.843Z,6.72
2018-04-06T07:24:33.554Z,6.05
2018-04-06T07:25:39.648Z,6.39
2018-04-06T07:26:44.721Z,6.26
2018-04-06T07:27:50.509Z,6.02
2018-04-06T07:28:56.024Z,6.22
2018-04-06T07:30:01.553Z,6.23
2018-04-06T07:31:07.094Z,5.99
2018-04-06T07:32:12.856Z,6.19
2018-04-06T07:33:19.396Z,6.70
2018-04-06T07:34:24.978Z,7.41
2018-04-06T07:35:30.494Z,7.23
2018-04-06T07:36:35.758Z,7.05
2018-04-06T07:37:41.164Z,6.56
2018-04-06T07:38:46.699Z,6.51
2018-04-06T07:39:52.222Z,6.60
2018-04-06T07:40:57.810Z,6.43
2018-04-06T07:42:03.363Z,6.66
2018-04-06T07:43:09.746Z,6.63
2018-04-06T07:44:16.008Z,6.76
2018-04-06T07:45:26.740Z,6.97
2018-04-06T07:46:34.186Z,6.28
2018-04-06T07:47:40.647Z,6.09
2018-04-06T07:48:46.098Z,6.37
2018-04-06T07:49:52.122Z,6.42
2018-04-06T07:50:57.555Z,6.52
2018-04-06T07:52:03.049Z,6.54
2018-04-06T07:53:08.707Z,6.43
2018-04-06T07:54:14.725Z,6.43
2018-04-06T07:55:21.213Z,6.37
2018-04-06T07:56:26.857Z,6.80
2018-04-06T07:57:32.718Z,7.06
2018-04-06T07:58:38.730Z,6.92
2018-04-06T07:59:44.725Z,6.94
2018-04-06T08:00:52.314Z,6.86
2018-04-06T08:02:01.316Z,7.02
2018-04-06T08:03:07.228Z,6.71
2018-04-06T08:04:13.039Z,6.85
2018-04-06T08:05:18.706Z,7.45
2018-04-06T08:06:24.579Z,7.57
2018-04-06T08:07:30.358Z,7.64
2018-04-06T08:08:36.618Z,7.90
2018-04-06T08:09:42.418Z,7.93
2018-04-06T08:10:47.995Z,8.42
2018-04-06T08:11:53.791Z,7.66
2018-04-06T08:12:59.567Z,7.50
2018-04-06T08:14:05.299Z,7.60
2018-04-06T08:15:11.381Z,7.93
2018-04-06T08:16:17.227Z,7.74
2018-04-06T08:17:29.562Z,7.60
2018-04-06T08:18:43.086Z,7.74
2018-04-06T08:19:55.279Z,7.64
2018-04-06T08:21:06.776Z,7.38
2018-04-06T08:22:23.266Z,7.30
2018-04-06T08:23:43.311Z,7.31
2018-04-06T08:25:00.903Z,7.94
2018-04-06T08:27:29.478Z,7.18
2018-04-06T08:30:02.673Z,7.20
2018-04-06T08:31:17.060Z,7.74
2018-04-06T08:32:40.410Z,7.81
2018-04-06T08:33:53.020Z,7.40
2018-04-06T08:35:13.613Z,7.35
2018-04-06T08:36:34.880Z,7.26
2018-04-06T08:39:24.357Z,7.49
2018-04-06T08:40:47.260Z,7.44
2018-04-06T08:43:23.172Z,8.23
2018-04-06T08:46:01.697Z,8.17
2018-04-06T08:47:12.360Z,8.33
2018-04-06T08:48:24.134Z,8.11
2018-04-06T08:49:36.817Z,8.44
2018-04-06T08:50:51.051Z,8.31
2018-04-06T08:52:05.661Z,8.65
2018-04-06T08:53:32.909Z,8.88
2018-04-06T08:54:39.565Z,8.67
2018-04-06T08:55:56.954Z,8.10
2018-04-06T08:57:14.206Z,8.20
2018-04-06T08:58:36.685Z,8.08
2018-04-06T09:02:40.814Z,7.82
2018-04-06T09:03:54.675Z,7.87
2018-04-06T09:05:14.124Z,7.96
2018-04-06T09:06:27.985Z,8.51
2018-04-06T09:07:36.801Z,8.25
2018-04-06T09:08:49.051Z,8.40
2018-04-06T09:10:00.879Z,7.88
2018-04-06T09:12:38.199Z,8.44
2018-04-06T09:13:49.875Z,8.71
2018-04-06T09:15:16.079Z,8.66
2018-04-06T09:16:30.733Z,8.54
2018-04-06T09:17:46.581Z,8.42
2018-04-06T09:18:55.146Z,8.67
2018-04-06T09:20:00.823Z,8.51
2018-04-06T09:21:06.558Z,8.64
2018-04-06T09:22:12.006Z,8.59
2018-04-06T09:23:17.590Z,9.18
2018-04-06T09:24:23.252Z,9.29
2018-04-06T09:25:28.811Z,8.97
2018-04-06T09:26:34.335Z,8.66
2018-04-06T09:27:39.722Z,8.86
2018-04-06T09:28:45.110Z,8.56
2018-04-06T09:29:50.553Z,8.56
2018-04-06T09:30:55.992Z,9.00
2018-04-06T09:32:01.264Z,8.88
2018-04-06T09:33:07.128Z,8.74
2018-04-06T09:34:12.579Z,8.88
2018-04-06T09:35:18.021Z,9.17
2018-04-06T09:36:23.572Z,9.29
2018-04-06T09:37:29.088Z,9.40
2018-04-06T09:38:34.816Z,9.61
2018-04-06T09:39:40.184Z,9.71
2018-04-06T09:40:45.474Z,9.27
2018-04-06T09:41:50.792Z,9.09
2018-04-06T09:42:56.320Z,9.06
2018-04-06T09:44:01.825Z,9.34
2018-04-06T09:45:07.600Z,9.62
2018-04-06T09:46:13.077Z,9.90
2018-04-06T09:47:18.929Z,9.43
2018-04-06T09:48:24.278Z,9.23
2018-04-06T09:49:29.472Z,9.71
2018-04-06T09:50:35.154Z,10.27
2018-04-06T09:51:42.053Z,9.82
2018-04-06T09:52:47.622Z,9.39
2018-04-06T09:53:53.166Z,9.32
2018-04-06T09:54:58.625Z,9.10
2018-04-06T09:56:04.116Z,9.53
2018-04-06T09:57:09.970Z,9.72
2018-04-06T09:58:15.485Z,9.82
2018-04-06T09:59:20.954Z,9.88
2018-04-06T10:00:30.355Z,10.40
2018-04-06T10:01:36.839Z,10.19
2018-04-06T10:02:44.302Z,10.65
2018-04-06T10:03:50.305Z,10.75
2018-04-06T10:04:55.604Z,10.45
2018-04-06T10:06:01.672Z,9.53
2018-04-06T10:07:07.736Z,9.55
2018-04-06T10:08:13.637Z,9.60
2018-04-06T10:09:18.954Z,10.29
2018-04-06T10:10:24.390Z,10.32
2018-04-06T10:11:29.463Z,10.18
2018-04-06T10:12:35.546Z,10.03
2018-04-06T10:13:41.145Z,10.10
2018-04-06T10:14:47.517Z,10.11
2018-04-06T10:15:52.782Z,9.96
2018-04-06T10:16:58.257Z,10.28
2018-04-06T10:18:03.582Z,10.16
2018-04-06T10:19:09.184Z,9.95
2018-04-06T10:20:14.603Z,9.65
2018-04-06T10:21:20.357Z,10.00
2018-04-06T10:22:25.922Z,9.93
2018-04-06T10:23:31.429Z,10.22
2018-04-06T10:24:36.958Z,10.71
2018-04-06T10:25:42.530Z,9.98
2018-04-06T10:26:48.120Z,9.98
2018-04-06T10:27:53.891Z,10.20
2018-04-06T10:28:59.548Z,10.33
2018-04-06T10:30:05.203Z,10.84
2018-04-06T10:31:10.830Z,11.29
2018-04-06T10:32:16.253Z,11.18
2018-04-06T10:33:21.874Z,10.65
2018-04-06T10:34:27.747Z,10.80
2018-04-06T10:35:33.151Z,10.74
2018-04-06T10:36:39.438Z,11.12
2018-04-06T10:37:44.957Z,11.33
2018-04-06T10:38:50.508Z,11.55
2018-04-06T10:39:56.038Z,11.38
2018-04-06T10:41:02.914Z,10.65
2018-04-06T10:42:08.205Z,10.81
2018-04-06T10:43:13.748Z,11.37
2018-04-06T10:44:19.000Z,11.48
2018-04-06T10:45:24.218Z,11.43
2018-04-06T10:46:29.621Z,10.87
2018-04-06T10:47:35.537Z,10.65
2018-04-06T10:48:40.758Z,10.56
2018-04-06T10:49:46.110Z,11.05
2018-04-06T10:54:55.405Z,10.72
2018-04-06T10:56:01.994Z,11.03
2018-04-06T10:57:07.646Z,10.73
2018-04-06T10:58:13.678Z,11.09
2018-04-06T10:59:19.141Z,11.07
2018-04-06T11:00:25.664Z,10.87
2018-04-06T11:01:31.370Z,10.89
2018-04-06T11:02:38.688Z,11.47
2018-04-06T11:03:43.861Z,11.31
2018-04-06T11:04:49.378Z,11.25
2018-04-06T11:05:54.716Z,11.46
2018-04-06T11:07:00.313Z,11.97
2018-04-06T11:08:06.947Z,11.63
2018-04-06T11:09:13.283Z,11.19
2018-04-06T11:10:18.879Z,11.40
2018-04-06T11:11:24.238Z,11.29
2018-04-06T11:12:29.678Z,11.23
2018-04-06T11:13:34.941Z,11.18
2018-04-06T11:14:40.927Z,11.57
2018-04-06T11:15:46.307Z,11.34
2018-04-06T11:16:51.733Z,11.48
2018-04-06T11:17:56.980Z,11.58
2018-04-06T11:19:02.632Z,11.71
2018-04-06T11:20:08.148Z,11.59
2018-04-06T11:21:14.136Z,11.59
2018-04-06T11:22:19.658Z,11.68
2018-04-06T11:23:25.484Z,11.57
2018-04-06T11:24:31.341Z,11.47
2018-04-06T11:25:37.252Z,11.61
2018-04-06T11:26:43.692Z,11.25
2018-04-06T11:27:49.505Z,11.54
2018-04-06T11:28:55.304Z,11.13
2018-04-06T11:30:00.884Z,11.39
2018-04-06T11:31:06.733Z,11.55
2018-04-06T11:32:12.876Z,11.77
2018-04-06T11:33:18.500Z,11.80
2018-04-06T11:34:23.999Z,11.64
2018-04-06T11:35:29.497Z,11.56
2018-04-06T11:36:35.002Z,11.58
2018-04-06T11:37:40.206Z,11.30
2018-04-06T11:38:46.701Z,11.52
2018-04-06T11:39:52.167Z,11.37
2018-04-06T11:40:57.632Z,11.41
2018-04-06T11:42:03.914Z,11.41
2018-04-06T11:43:09.338Z,11.53
2018-04-06T11:44:14.701Z,11.76
2018-04-06T11:45:20.558Z,11.88
2018-04-06T11:46:26.123Z,12.03
2018-04-06T11:47:31.693Z,11.75
2018-04-06T11:48:37.090Z,12.03
2018-04-06T11:49:42.401Z,11.95
2018-04-06T11:50:47.794Z,11.60
2018-04-06T11:51:53.573Z,11.75
2018-04-06T11:52:58.932Z,11.77
2018-04-06T11:54:04.793Z,11.75
2018-04-06T11:55:10.365Z,11.33
2018-04-06T11:56:15.824Z,11.44
2018-04-06T11:57:21.769Z,11.53
2018-04-06T11:58:27.072Z,11.75
2018-04-06T11:59:33.779Z,11.60
2018-04-06T12:00:39.525Z,11.71
2018-04-06T12:01:45.107Z,11.64
2018-04-06T12:02:50.669Z,11.87
2018-04-06T12:03:56.585Z,11.92
2018-04-06T12:05:01.985Z,11.78
2018-04-06T12:06:07.809Z,11.77
2018-04-06T12:07:13.486Z,11.96
2018-04-06T12:08:19.087Z,11.95
2018-04-06T12:09:24.556Z,12.33
2018-04-06T12:10:30.279Z,12.56
2018-04-06T12:11:35.754Z,12.91
2018-04-06T12:12:41.077Z,12.90
2018-04-06T12:13:46.512Z,12.68
2018-04-06T12:14:52.075Z,12.29
2018-04-06T12:15:57.510Z,12.19
2018-04-06T12:17:03.344Z,12.22
2018-04-06T12:18:09.644Z,12.07
2018-04-06T12:19:15.730Z,12.04
2018-04-06T12:20:22.109Z,12.38
2018-04-06T12:21:28.144Z,12.55
2018-04-06T12:22:34.779Z,12.80
2018-04-06T12:23:40.370Z,12.54
2018-04-06T12:24:45.846Z,12.53
2018-04-06T12:25:51.176Z,12.33
2018-04-06T12:26:56.560Z,12.47
2018-04-06T12:28:02.000Z,12.35
2018-04-06T12:29:08.188Z,12.43
2018-04-06T12:30:13.799Z,12.35
2018-04-06T12:31:20.184Z,12.29
2018-04-06T12:32:26.131Z,12.33
2018-04-06T12:33:31.698Z,12.13
2018-04-06T12:34:37.599Z,12.25
2018-04-06T12:35:43.262Z,12.51
2018-04-06T12:36:48.589Z,12.19
2018-04-06T12:37:54.290Z,12.51
2018-04-06T12:38:59.764Z,12.69
2018-04-06T12:40:05.305Z,12.70
2018-04-06T12:41:11.314Z,12.29
2018-04-06T12:42:16.949Z,12.53
2018-04-06T12:43:22.524Z,12.46
2018-04-06T12:44:28.216Z,12.32
2018-04-06T12:45:33.593Z,12.49
2018-04-06T12:46:39.098Z,12.87
2018-04-06T12:47:45.014Z,13.16
2018-04-06T12:48:50.911Z,13.43
2018-04-06T12:49:56.391Z,13.32
2018-04-06T12:51:01.871Z,13.42
2018-04-06T12:52:07.388Z,13.29
2018-04-06T12:53:12.723Z,13.65
2018-04-06T12:54:18.522Z,13.59
2018-04-06T12:55:24.030Z,13.99
2018-04-06T12:56:29.601Z,13.62
2018-04-06T12:57:35.207Z,13.76
2018-04-06T12:58:40.724Z,13.71
2018-04-06T12:59:46.360Z,13.92
2018-04-06T13:00:52.495Z,13.76
2018-04-06T13:01:58.134Z,13.37
2018-04-06T13:03:04.400Z,13.12
2018-04-06T13:04:10.946Z,13.34
2018-04-06T13:05:16.442Z,13.56
2018-04-06T13:06:23.599Z,14.04
2018-04-06T13:07:29.038Z,14.06
2018-04-06T13:08:35.673Z,13.96
2018-04-06T13:09:41.365Z,13.48
2018-04-06T13:10:46.882Z,13.49
2018-04-06T13:11:52.337Z,13.43
2018-04-06T13:12:58.628Z,13.20
2018-04-06T13:14:04.114Z,13.27
2018-04-06T13:15:09.704Z,13.15
2018-04-06T13:16:15.582Z,13.15
2018-04-06T13:17:22.315Z,13.39
2018-04-06T13:18:27.784Z,13.57
2018-04-06T13:19:33.391Z,12.82
2018-04-06T13:20:38.692Z,12.74
2018-04-06T13:21:44.081Z,13.50
2018-04-06T13:22:49.509Z,13.09
2018-04-06T13:23:54.643Z,13.15
2018-04-06T13:25:00.177Z,13.06
2018-04-06T13:26:05.611Z,13.01
2018-04-06T13:27:11.192Z,13.32
2018-04-06T13:28:16.600Z,12.99
2018-04-06T13:29:21.907Z,13.20
2018-04-06T13:30:27.327Z,13.54
2018-04-06T13:31:32.869Z,13.64
2018-04-06T13:32:38.559Z,13.28
2018-04-06T13:33:43.955Z,13.70
2018-04-06T13:34:49.366Z,13.34
2018-04-06T13:35:54.875Z,13.31
2018-04-06T13:37:00.512Z,13.40
2018-04-06T13:38:05.774Z,13.35
2018-04-06T13:39:11.437Z,13.77
2018-04-06T13:40:17.014Z,13.52
2018-04-06T13:41:22.485Z,13.58
2018-04-06T13:42:28.223Z,13.55
2018-04-06T13:43:33.547Z,13.42
2018-04-06T13:44:38.861Z,13.62
2018-04-06T13:45:44.481Z,13.23
2018-04-06T13:46:49.867Z,13.45
2018-04-06T13:47:55.309Z,13.39
2018-04-06T13:49:00.622Z,13.91
2018-04-06T13:50:05.961Z,13.64
2018-04-06T13:51:11.976Z,13.62
2018-04-06T13:52:18.506Z,13.69
2018-04-06T13:53:24.084Z,13.90
2018-04-06T13:54:30.473Z,13.91
2018-04-06T13:55:36.407Z,13.97
2018-04-06T13:56:41.904Z,13.54
2018-04-06T13:57:47.394Z,13.78
2018-04-06T13:58:53.556Z,14.05
2018-04-06T14:00:00.153Z,13.94
2018-04-06T14:10:45.818Z,14.03
2018-04-06T14:11:51.394Z,13.66
2018-04-06T14:12:56.832Z,13.72
2018-04-06T14:14:02.117Z,13.75
2018-04-06T14:15:07.651Z,13.96
2018-04-06T14:16:13.176Z,13.86
2018-04-06T14:17:18.790Z,13.87
2018-04-06T14:18:24.787Z,14.28
2018-04-06T14:19:30.066Z,14.32
2018-04-06T14:20:35.443Z,14.38
2018-04-06T14:21:41.000Z,14.40
2018-04-06T14:22:46.449Z,14.12
2018-04-06T14:23:52.440Z,14.52
2018-04-06T14:24:57.572Z,14.31
2018-04-06T14:26:03.029Z,14.45
2018-04-06T14:27:08.331Z,13.97
2018-04-06T14:28:13.857Z,13.96
2018-04-06T14:29:19.104Z,14.38
2018-04-06T14:30:25.392Z,14.50
2018-04-06T14:31:31.064Z,14.45
2018-04-06T14:32:36.636Z,14.14
2018-04-06T14:33:42.056Z,14.11
2018-04-06T14:34:47.502Z,13.98
2018-04-06T14:35:52.975Z,14.41
2018-04-06T14:36:58.883Z,14.60
2018-04-06T14:38:05.082Z,15.08
2018-04-06T14:39:10.559Z,14.92
2018-04-06T14:40:16.634Z,14.91
2018-04-06T14:41:23.184Z,15.11
2018-04-06T14:42:28.628Z,15.05
2018-04-06T14:43:34.268Z,14.82
2018-04-06T14:44:39.787Z,14.76
2018-04-06T14:45:45.090Z,15.09
2018-04-06T14:46:50.467Z,15.33
2018-04-06T14:47:56.149Z,15.14
2018-04-06T14:49:01.867Z,15.23